SKCC/CUC METAR and TAF weather

Enter ICAO airport designator
Station Type Date Time Source
SKCC METAR 2022/01/19 20:00 UTC NOAA

SKCC 192000Z 36012KT 9999 SCT020 30/21 Q1012 RMK A2990


Station Type Date Time Source
SKCC Decoded METAR 2022/01/19 20:00 UTC NOAA

Cucuta / Camilo Daza, Colombia (SKCC) 07-56N 072-31W 317M
Jan 19, 2022 - 03:00 PM EST / 2022.01.19 2000 UTC
Wind: from the N (360 degrees) at 14 MPH (12 KT):0
Visibility: greater than 7 mile(s):0
Sky conditions: partly cloudy
Temperature: 86 F (30 C)
Dew Point: 69 F (21 C)
Relative Humidity: 58%
Pressure (altimeter): 29.88 in. Hg (1012 hPa)
ob: SKCC 192000Z 36012KT 9999 SCT020 30/21 Q1012 RMK A2990
cycle: 20

Station Type Date Time Source
SKCC TAF 2022/01/19 18:42 UTC NOAA

TAF SKCC 191630Z 1918/2018 35010KT 9999 SCT020
BECMG 201/2003 VRB02KT FEW010
TEMPO 2010/2014 5000 BR
BECMG 2015/2017 32012KT SCT015 TX29/1918Z TN23/2010Z

Example: see airport list